Logo AVAMET
Benvolgut visitant, si us plau, ingressa Recuperar contrasenya

Alcalalí centre

Dades diàries. Acumulats / Últims 30 dies disponibles

Data Temperatura (°C) Humitat rel. (%) Pressió rel. (hPa) Vent (km/h) Precipitació
Mínima Mitjana Màxima Amplitud
tèrmica
Mínima Mitjana Màxima Mínima Mitjana Màxima Predom. Mitjana Ràfega
màxima
Total
(mm)
Índex-n
Mínima Mitjana Màxima Mínima Mitjana Màxima n
0 a 1
P0 max
mm 5'
Dades mensuals acumulades fins l'últim dia disponible
07/2019 18,4 20,8 26,6 26,3 28,7 31,6 38,4 20,0 16 61 90 1.009 1.014 1.018   7,5 86,9 1,0
Dades anuals acumulades fins l'últim dia disponible
2019 1,1 10,9 26,6 15,9 10,3 20,9 38,4 37,3 15 63 97 999 1.018 1.036   6,7 86,9 454,8
Últims 30 dies disponibles
17-07-2019 19,4     25,7     30,1 10,7 34 51 73 1.012 1.014 1.016 E 9,0 40,2 0,0
16-07-2019 20,3     25,1     28,7 8,4 43 62 82 1.014 1.015 1.017 SE 9,5 41,8 0,0
15-07-2019 20,7     26,1     31,0 10,3 46 69 84 1.010 1.011 1.014 E 5,8 32,2 0,0
14-07-2019 21,0     25,6     29,7 8,7 45 74 90 1.010 1.011 1.013 E 5,8 33,8 0,0
13-07-2019 23,5     27,6     33,8 10,3 24 54 84 1.012 1.014 1.015 NNE 6,8 30,6 0,0
12-07-2019 20,3     27,4     36,2 15,9 26 46 65 1.013 1.015 1.016 E 7,2 35,4 0,0
11-07-2019 18,4     26,1     32,6 14,2 36 53 71 1.013 1.015 1.016 E 6,3 41,8 0,0
10-07-2019 19,3     24,9     29,6 10,3 46 61 75 1.013 1.015 1.016 E 8,7 33,8 0,0
09-07-2019 20,8     25,6     29,3 8,5 40 62 88 1.010 1.012 1.014 WNW 8,2 32,2 0,0
08-07-2019 22,9     26,1     30,6 7,7 39 69 86 1.010 1.011 1.013 E 5,5 33,8 1,0
07-07-2019 26,6     32,9     38,4 11,8 22 37 69 1.009 1.011 1.013 SSW 14,3 64,4 0,0
06-07-2019 21,6     29,7     38,2 16,6 16 56 90 1.011 1.013 1.015 SSW 10,3 86,9 0,0
05-07-2019 19,2     25,1     30,5 11,3 58 73 86 1.014 1.016 1.018 WNW 6,4 35,4 0,0
04-07-2019 19,6     24,6     29,1 9,5 57 68 86 1.014 1.016 1.018 WNW 5,5 30,6 0,0
03-07-2019 19,0     24,9     30,5 11,5 41 58 82 1.013 1.015 1.016 WNW 5,6 25,7 0,0
02-07-2019 21,4     25,1     29,6 8,2 38 71 90 1.014 1.015 1.017 NNE 6,4 27,4 0,0
01-07-2019 19,9     24,7     29,3 9,4 56 71 87 1.014 1.016 1.018 NNE 6,9 30,6 0,0
30-06-2019 18,7     26,9     33,4 14,7 28 41 64 1.016 1.017 1.018 S 5,6 25,7 0,0
29-06-2019 18,9     27,8     35,3 16,4 22 39 56 1.014 1.015 1.017 E 7,4 33,8 0,0
28-06-2019 20,5     27,7     34,1 13,6 26 46 67 1.015 1.017 1.019 WNW 6,4 33,8 0,0
27-06-2019 20,4     25,4     31,7 11,3 39 66 92 1.018 1.019 1.021 WNW 8,5 29,0 0,0
26-06-2019 21,2     23,3     27,8 6,6 68 81 89 1.017 1.018 1.020 WNW 9,0 32,2 0,0
25-06-2019 18,3     22,7     26,9 8,6 63 75 91 1.015 1.016 1.018 WNW 7,1 27,4 0,0
24-06-2019 17,1     22,7     27,3 10,2 49 66 90 1.013 1.014 1.016 WNW 6,3 29,0 0,0
23-06-2019 15,9     22,9     29,4 13,5 28 56 79 1.013 1.015 1.016 WNW 6,6 30,6 0,0
22-06-2019 17,9     22,5     26,5 8,6 47 66 89 1.015 1.016 1.018 WNW 8,5 30,6 0,0
21-06-2019 19,6     21,6     25,2 5,6 58 76 89 1.013 1.014 1.017 WNW 6,9 27,4 0,0
20-06-2019 17,4     21,6     24,7 7,3 58 72 88 1.011 1.012 1.014 NNE 6,9 32,2 0,0
19-06-2019 15,4     24,0     31,1 15,7 27 52 83 1.011 1.013 1.014 WNW 5,6 37,0 0,0
18-06-2019 14,7     22,3     28,6 13,9 31 55 79 1.013 1.015 1.016 E 8,0 41,8 0,0
Últims 13 mesos disponibles
06/2019 11,3 16,1 21,2 21,9 20,2 27,1 35,3 24,0 39 60 81 1.009 1.015 1.022 WNW 7,2 49,9 2,4
05/2019 8,4 12,7 20,3 17,8 18,6 22,7 28,8 20,4 44 66 81 1.006 1.016 1.025 WNW 6,4 64,4 28,6
04/2019 7,2 10,7 14,4 14,5 13,1 18,5 27,3 20,1 36 69 95 1.000 1.013 1.025 WNW 7,7 64,4 340,6
03/2019 5,2 8,2 13,0 13,6 12,3 18,6 26,8 21,6 33 59 91 1.010 1.023 1.030 WNW 5,8 61,2 76,2
02/2019 2,6 6,1 10,6 11,3 11,6 16,7 22,4 19,8 38 65 83 1.021 1.027 1.034 WNW 6,2 74,0 0,0
01/2019 1,1 6,0 13,3 10,4 10,3 15,5 18,9 17,8 37 60 80 1.004 1.019 1.031 WNW 6,2 78,9 6,0
12/2018 3,6 7,5 10,7 12,4 11,6 18,1 23,8 20,2 51 69 91 1.009 1.025 1.031 WNW 3,7 66,0 34,2
11/2018 5,0 10,4 15,9 14,1 13,1 17,9 23,1 18,1 47 72 93 1.001 1.015 1.023 WNW 5,1 69,2 199,2
10/2018 8,0 13,8 18,8 18,1 13,4 22,5 27,5 19,5 42 71 88 1.000 1.015 1.026 4,5 57,9 130,4
09/2018 12,7 19,2 22,3 23,4 23,3 27,4 31,7 19,0 58 76 88 1.012 1.020 1.028 4,9 43,5 73,0
08/2018 18,4 21,5 25,0 26,3 24,3 30,8 35,9 17,5 41 65 81 1.012 1.016 1.021 6,5 41,8 16,6
07/2018 17,9 20,8 24,9 25,9 24,1 30,6 34,5 16,6 7,0 51,5 0,0
06/2018 13,9 17,3 21,2 22,5 22,5 27,1 31,1 17,2 6,9 46,7 64,2
Tots els anys disponibles
2018 1,3 13,3 25,0 17,8 6,9 22,3 35,9 34,6 41 70 93 1.000 1.018 1.031 WNW 6,3 88,5 756,0
2017 0,2 12,7 26,0 17,5 7,2 22,4 36,6 36,4 6,3 96,6 784,6
Temperatura (°C)
Humitat relativa (%)
Velocitat del vent i ràfega màxima (km/h)
Direcció del vent (°)
Pressió (hPa)
Precipitació (mm)
Nota sobre les dades: s'avisa a l'usuari de la provisionalitat i no oficialitat d'aquestes dades
Logo AVAMET blanc
Web allotjada a Sollutia
Llicència de Creative CommonsLa web d'AVAMET i els seus continguts estan subjectes a una llicència de
Reconeixement - No Comercial - Compartir igual
Properes estacions: Altea - Club Nàutic d'Altea (Soci), Ares del Maestrat (Ajuntament Soci),      - - - - -      Últimes estacions: Catadau - Urb. Lloma Molina (Inforatge), Ontinyent - El Pilar (Soci), Asp - Poliesportiu (Soci) - - -